createdAt,value
2023-05-22T00:00:28.086Z,17.60
2023-05-22T00:03:06.014Z,17.60
2023-05-22T00:05:39.078Z,17.70
2023-05-22T00:08:13.968Z,17.70
2023-05-22T00:10:48.232Z,17.60
2023-05-22T00:13:21.890Z,17.60
2023-05-22T00:15:51.910Z,17.60
2023-05-22T00:18:22.934Z,17.50
2023-05-22T00:20:53.685Z,17.50
2023-05-22T00:23:26.263Z,17.50
2023-05-22T00:25:58.774Z,17.40
2023-05-22T00:28:31.303Z,17.30
2023-05-22T00:31:02.658Z,17.20
2023-05-22T00:33:35.518Z,17.20
2023-05-22T00:36:08.636Z,17.20
2023-05-22T00:38:38.207Z,17.20
2023-05-22T00:41:11.347Z,17.20
2023-05-22T00:43:41.667Z,17.10
2023-05-22T00:46:13.588Z,17.00
2023-05-22T00:48:43.061Z,16.90
2023-05-22T00:51:17.644Z,16.90
2023-05-22T00:53:48.845Z,16.90
2023-05-22T00:56:19.584Z,16.80
2023-05-22T00:58:50.834Z,16.70
2023-05-22T01:01:22.305Z,16.60
2023-05-22T01:03:54.132Z,16.50
2023-05-22T01:06:23.526Z,16.40
2023-05-22T01:08:52.148Z,16.30
2023-05-22T01:11:29.024Z,16.30
2023-05-22T01:14:05.647Z,16.20
2023-05-22T01:16:41.048Z,16.10
2023-05-22T01:19:31.291Z,16.00
2023-05-22T01:22:14.353Z,15.90
2023-05-22T01:24:58.096Z,15.80
2023-05-22T01:27:51.271Z,15.80
2023-05-22T01:30:50.952Z,15.70
2023-05-22T01:33:26.543Z,15.70
2023-05-22T01:35:58.826Z,15.70
2023-05-22T01:38:29.090Z,15.60
2023-05-22T01:41:00.241Z,15.60
2023-05-22T01:43:29.101Z,15.60
2023-05-22T01:45:57.557Z,15.60
2023-05-22T01:48:27.713Z,15.50
2023-05-22T01:51:03.099Z,15.50
2023-05-22T01:53:42.585Z,15.50
2023-05-22T01:56:16.214Z,15.50
2023-05-22T01:58:52.865Z,15.50
2023-05-22T02:01:24.180Z,15.60
2023-05-22T02:03:57.499Z,15.60
2023-05-22T02:06:29.229Z,15.60
2023-05-22T02:08:58.326Z,15.70
2023-05-22T02:11:33.049Z,15.70
2023-05-22T02:14:01.944Z,15.80
2023-05-22T02:16:31.212Z,15.80
2023-05-22T02:19:06.887Z,15.80
2023-05-22T02:21:37.461Z,15.80
2023-05-22T02:24:06.570Z,15.80
2023-05-22T02:26:34.764Z,15.90
2023-05-22T02:29:03.646Z,15.90
2023-05-22T02:31:32.185Z,15.90
2023-05-22T02:34:00.914Z,15.90
2023-05-22T02:36:32.437Z,15.90
2023-05-22T02:39:01.472Z,15.90
2023-05-22T02:41:30.848Z,15.90
2023-05-22T02:44:01.903Z,15.90
2023-05-22T02:46:31.455Z,15.90
2023-05-22T02:49:00.513Z,16.00
2023-05-22T02:51:30.962Z,16.00
2023-05-22T02:54:00.146Z,16.00
2023-05-22T02:56:29.961Z,16.00
2023-05-22T02:58:58.355Z,16.00
2023-05-22T03:01:27.546Z,16.00
2023-05-22T03:03:56.267Z,16.00
2023-05-22T03:06:26.777Z,16.00
2023-05-22T03:08:56.775Z,16.00
2023-05-22T03:11:25.752Z,16.00
2023-05-22T03:13:54.436Z,16.00
2023-05-22T03:16:23.799Z,16.00
2023-05-22T03:18:54.449Z,15.90
2023-05-22T03:21:23.065Z,15.90
2023-05-22T03:23:52.157Z,15.90
2023-05-22T03:26:22.355Z,15.90
2023-05-22T03:28:51.802Z,15.90
2023-05-22T03:31:23.081Z,15.90
2023-05-22T03:34:08.382Z,15.90
2023-05-22T03:36:38.888Z,16.00
2023-05-22T03:39:08.212Z,15.90
2023-05-22T03:41:43.746Z,15.90
2023-05-22T03:44:13.610Z,15.80
2023-05-22T03:46:42.143Z,15.70
2023-05-22T03:49:10.708Z,15.70
2023-05-22T03:51:39.449Z,15.70
2023-05-22T03:54:07.914Z,15.70
2023-05-22T03:56:37.146Z,15.70
2023-05-22T03:59:07.284Z,15.70
2023-05-22T04:01:39.344Z,15.70
2023-05-22T04:04:09.542Z,15.70
2023-05-22T04:06:43.554Z,15.70
2023-05-22T04:09:16.733Z,15.70
2023-05-22T04:11:46.669Z,15.70
2023-05-22T04:14:17.185Z,15.80
2023-05-22T04:16:50.272Z,15.90
2023-05-22T04:19:20.089Z,15.90
2023-05-22T04:21:52.850Z,15.90
2023-05-22T04:24:23.361Z,15.90
2023-05-22T04:26:52.226Z,16.00
2023-05-22T04:29:22.932Z,16.10
2023-05-22T04:31:54.624Z,16.20
2023-05-22T04:34:24.109Z,16.30
2023-05-22T04:36:56.051Z,16.40
2023-05-22T04:39:26.357Z,16.50
2023-05-22T04:41:55.082Z,16.60
2023-05-22T04:44:25.342Z,16.60
2023-05-22T04:46:54.073Z,16.70
2023-05-22T04:49:24.740Z,16.80
2023-05-22T04:51:55.123Z,16.90
2023-05-22T04:54:24.268Z,17.00
2023-05-22T04:56:53.493Z,17.20
2023-05-22T04:59:23.570Z,17.40
2023-05-22T05:01:53.520Z,17.60
2023-05-22T05:04:21.753Z,17.80
2023-05-22T05:06:53.922Z,18.00
2023-05-22T05:09:23.297Z,18.20
2023-05-22T05:15:25.716Z,18.40
2023-05-22T05:17:55.374Z,18.60
2023-05-22T05:20:24.970Z,19.00
2023-05-22T05:22:53.172Z,19.30
2023-05-22T05:25:22.384Z,19.60
2023-05-22T05:27:51.108Z,20.10
2023-05-22T05:30:20.833Z,20.80
2023-05-22T05:33:20.533Z,21.40
2023-05-22T05:36:12.160Z,22.40
2023-05-22T05:38:42.039Z,23.10
2023-05-22T05:41:12.288Z,23.90
2023-05-22T05:43:40.980Z,24.70
2023-05-22T05:46:11.251Z,25.20
2023-05-22T05:48:41.644Z,25.70
2023-05-22T05:51:10.759Z,26.00
2023-05-22T05:53:43.489Z,26.50
2023-05-22T05:56:13.158Z,27.00
2023-05-22T05:58:43.412Z,27.40
2023-05-22T06:01:48.863Z,27.90
2023-05-22T06:04:25.645Z,28.80
2023-05-22T06:06:54.586Z,29.60
2023-05-22T06:09:28.354Z,30.30
2023-05-22T06:12:26.092Z,31.00
2023-05-22T06:14:55.104Z,31.50
2023-05-22T06:17:26.276Z,31.80
2023-05-22T06:19:57.070Z,32.00
2023-05-22T06:22:29.660Z,32.10
2023-05-22T06:25:00.368Z,32.30
2023-05-22T06:27:30.860Z,32.50
2023-05-22T06:30:00.477Z,32.70
2023-05-22T06:32:33.105Z,32.40
2023-05-22T06:35:04.732Z,32.20
2023-05-22T06:37:36.127Z,32.10
2023-05-22T06:40:07.498Z,32.30
2023-05-22T06:42:50.990Z,32.60
2023-05-22T06:45:28.486Z,33.00
2023-05-22T06:48:23.743Z,33.30
2023-05-22T06:51:08.890Z,33.90
2023-05-22T06:53:40.860Z,34.30
2023-05-22T06:56:14.917Z,34.40
2023-05-22T06:59:01.679Z,34.40
2023-05-22T07:01:53.460Z,34.80
2023-05-22T07:04:31.915Z,35.30
2023-05-22T07:07:05.760Z,35.40
2023-05-22T07:09:35.328Z,36.30
2023-05-22T07:12:06.462Z,36.40
2023-05-22T07:14:35.928Z,36.30
2023-05-22T07:17:05.924Z,36.70
2023-05-22T07:19:40.258Z,36.90
2023-05-22T07:22:10.876Z,36.70
2023-05-22T07:24:41.713Z,37.00
2023-05-22T07:27:11.425Z,37.60
2023-05-22T07:29:40.780Z,38.30
2023-05-22T07:32:10.523Z,39.00
2023-05-22T07:34:39.472Z,39.70
2023-05-22T07:37:14.755Z,39.90
2023-05-22T07:39:47.577Z,39.10
2023-05-22T07:42:16.904Z,38.30
2023-05-22T07:44:53.298Z,39.00
2023-05-22T07:47:25.179Z,39.80
2023-05-22T07:49:54.053Z,40.20
2023-05-22T07:52:28.284Z,40.10
2023-05-22T07:54:58.939Z,39.80
2023-05-22T07:57:29.661Z,39.00
2023-05-22T08:00:06.750Z,38.60
2023-05-22T08:02:55.645Z,37.50
2023-05-22T08:05:24.418Z,36.90
2023-05-22T08:07:54.493Z,36.80
2023-05-22T08:10:23.396Z,37.40
2023-05-22T08:12:52.032Z,38.10
2023-05-22T08:15:20.632Z,39.60
2023-05-22T08:17:49.786Z,40.90
2023-05-22T08:20:18.707Z,41.50
2023-05-22T08:22:47.463Z,41.70
2023-05-22T08:25:18.273Z,41.90
2023-05-22T08:27:48.789Z,42.00
2023-05-22T08:30:18.971Z,41.90
2023-05-22T08:32:54.050Z,41.90
2023-05-22T08:35:25.223Z,42.30
2023-05-22T08:37:54.210Z,42.70
2023-05-22T08:40:25.370Z,42.50
2023-05-22T08:42:55.051Z,42.80
2023-05-22T08:45:26.180Z,42.00
2023-05-22T08:47:56.742Z,41.90
2023-05-22T08:50:49.614Z,42.30
2023-05-22T08:53:24.482Z,43.00
2023-05-22T08:55:55.720Z,43.20
2023-05-22T08:58:24.807Z,43.10
2023-05-22T09:00:55.322Z,43.20
2023-05-22T09:03:24.567Z,42.50
2023-05-22T09:05:53.240Z,42.60
2023-05-22T09:08:21.989Z,42.90
2023-05-22T09:10:51.393Z,42.80
2023-05-22T09:13:29.294Z,43.80
2023-05-22T09:16:01.819Z,45.00
2023-05-22T09:18:31.190Z,44.70
2023-05-22T09:21:02.689Z,44.30
2023-05-22T09:23:32.603Z,43.20
2023-05-22T09:26:02.976Z,42.60
2023-05-22T09:28:37.183Z,42.20
2023-05-22T09:31:07.424Z,42.00
2023-05-22T09:33:38.934Z,42.50
2023-05-22T09:36:12.368Z,43.00
2023-05-22T09:38:42.088Z,43.70
2023-05-22T09:41:11.525Z,43.30
2023-05-22T09:43:52.648Z,41.50
2023-05-22T09:46:21.724Z,39.70
2023-05-22T09:48:53.702Z,39.20
2023-05-22T09:51:26.824Z,39.00
2023-05-22T09:54:06.610Z,39.50
2023-05-22T09:56:40.118Z,40.80
2023-05-22T09:59:12.195Z,40.60
2023-05-22T10:01:42.848Z,40.50
2023-05-22T10:04:15.713Z,40.70
2023-05-22T10:06:47.002Z,40.30
2023-05-22T10:09:19.864Z,39.00
2023-05-22T10:11:50.216Z,38.20
2023-05-22T10:14:20.996Z,37.10
2023-05-22T10:16:50.002Z,37.10
2023-05-22T10:19:19.785Z,37.20
2023-05-22T10:21:50.040Z,37.90
2023-05-22T10:24:18.616Z,39.00
2023-05-22T10:26:47.555Z,38.90
2023-05-22T10:29:23.875Z,39.40
2023-05-22T10:32:00.338Z,39.70
2023-05-22T10:34:41.732Z,40.10
2023-05-22T10:37:21.546Z,40.40
2023-05-22T10:40:01.952Z,39.90
2023-05-22T10:42:32.497Z,40.50
2023-05-22T10:45:04.609Z,41.00
2023-05-22T10:47:35.036Z,40.90
2023-05-22T10:50:09.714Z,40.70
2023-05-22T10:52:38.608Z,40.50
2023-05-22T10:55:12.060Z,40.50
2023-05-22T10:57:41.027Z,40.50
2023-05-22T11:00:14.092Z,40.80
2023-05-22T11:02:46.769Z,41.20
2023-05-22T11:05:37.727Z,41.00
2023-05-22T11:08:48.361Z,42.00
2023-05-22T11:11:17.078Z,43.00
2023-05-22T11:13:52.917Z,44.20
2023-05-22T11:16:22.983Z,44.50
2023-05-22T11:19:18.589Z,44.40
2023-05-22T11:21:51.679Z,45.00
2023-05-22T11:24:20.537Z,45.10
2023-05-22T11:27:03.762Z,45.30
2023-05-22T11:29:34.272Z,45.60
2023-05-22T11:32:05.101Z,45.50
2023-05-22T11:34:34.850Z,45.00
2023-05-22T11:37:04.194Z,44.70
2023-05-22T11:39:34.676Z,45.40
2023-05-22T11:42:04.706Z,45.80
2023-05-22T11:44:33.613Z,45.80
2023-05-22T11:47:02.442Z,44.90
2023-05-22T11:49:32.752Z,43.10
2023-05-22T11:52:01.754Z,43.00
2023-05-22T11:54:35.317Z,43.80
2023-05-22T11:57:06.854Z,44.80
2023-05-22T11:59:35.625Z,45.80
2023-05-22T12:02:04.551Z,45.80
2023-05-22T12:04:35.800Z,46.00
2023-05-22T12:07:05.302Z,45.40
2023-05-22T12:09:34.732Z,45.00
2023-05-22T12:12:04.019Z,43.60
2023-05-22T12:14:33.503Z,42.70
2023-05-22T12:17:04.430Z,42.70
2023-05-22T12:19:33.687Z,43.00
2023-05-22T12:22:06.331Z,43.20
2023-05-22T12:24:41.296Z,43.90
2023-05-22T12:27:10.974Z,44.40
2023-05-22T12:29:40.396Z,44.00
2023-05-22T12:32:11.064Z,44.00
2023-05-22T12:34:45.307Z,43.70
2023-05-22T12:37:25.224Z,42.90
2023-05-22T12:39:58.214Z,42.90
2023-05-22T12:42:27.396Z,43.10
2023-05-22T12:44:57.382Z,43.70
2023-05-22T12:47:26.321Z,44.50
2023-05-22T12:49:55.030Z,45.20
2023-05-22T12:52:25.114Z,45.60
2023-05-22T12:54:53.477Z,45.60
2023-05-22T12:57:22.210Z,45.60
2023-05-22T12:59:50.682Z,45.60
2023-05-22T13:02:19.520Z,45.20
2023-05-22T13:04:48.218Z,44.60
2023-05-22T13:07:16.945Z,44.20
2023-05-22T13:09:47.271Z,44.50
2023-05-22T13:12:16.310Z,44.50
2023-05-22T13:14:45.185Z,43.40
2023-05-22T13:17:13.722Z,43.00
2023-05-22T13:19:42.981Z,42.20
2023-05-22T13:22:12.241Z,41.40
2023-05-22T13:24:40.703Z,41.00
2023-05-22T13:27:10.935Z,40.30
2023-05-22T13:29:39.594Z,39.50
2023-05-22T13:32:08.570Z,39.00
2023-05-22T13:34:36.952Z,39.00
2023-05-22T13:37:06.478Z,39.30
2023-05-22T13:39:35.331Z,39.80
2023-05-22T13:42:06.837Z,40.30
2023-05-22T13:44:37.058Z,40.40
2023-05-22T13:47:06.124Z,40.30
2023-05-22T13:49:35.103Z,40.40
2023-05-22T13:52:03.675Z,40.70
2023-05-22T13:54:32.305Z,40.70
2023-05-22T13:57:02.768Z,41.00
2023-05-22T13:59:31.410Z,41.30
2023-05-22T14:02:02.020Z,41.20
2023-05-22T14:04:31.072Z,41.10
2023-05-22T14:07:00.172Z,40.90
2023-05-22T14:09:28.714Z,40.90
2023-05-22T14:11:59.017Z,40.40
2023-05-22T14:14:27.831Z,40.00
2023-05-22T14:16:58.717Z,39.50
2023-05-22T14:19:29.608Z,39.30
2023-05-22T14:21:59.128Z,39.10
2023-05-22T14:24:28.002Z,39.20
2023-05-22T14:26:58.410Z,39.10
2023-05-22T14:29:27.456Z,39.30
2023-05-22T14:32:02.698Z,39.70
2023-05-22T14:34:32.912Z,40.10
2023-05-22T14:37:02.390Z,40.10
2023-05-22T14:39:30.922Z,39.90
2023-05-22T14:41:59.427Z,39.10
2023-05-22T14:44:29.105Z,39.10
2023-05-22T14:46:57.676Z,39.70
2023-05-22T14:49:26.559Z,40.30
2023-05-22T14:51:57.157Z,40.00
2023-05-22T14:54:25.662Z,39.70
2023-05-22T14:56:54.439Z,39.70
2023-05-22T14:59:22.982Z,39.10
2023-05-22T15:01:52.544Z,38.40
2023-05-22T15:04:21.180Z,38.40
2023-05-22T15:06:51.436Z,38.00
2023-05-22T15:09:21.995Z,38.10
2023-05-22T15:11:51.182Z,38.40
2023-05-22T15:14:22.193Z,38.50
2023-05-22T15:16:51.064Z,38.20
2023-05-22T15:19:19.792Z,38.00
2023-05-22T15:21:48.603Z,38.20
2023-05-22T15:24:17.277Z,38.40
2023-05-22T15:26:48.625Z,38.70
2023-05-22T15:29:18.603Z,39.30
2023-05-22T15:31:48.065Z,39.70
2023-05-22T15:34:17.083Z,39.50
2023-05-22T15:36:45.976Z,38.70
2023-05-22T15:39:14.797Z,37.90
2023-05-22T15:41:48.865Z,37.20
2023-05-22T15:44:28.935Z,36.40
2023-05-22T15:46:57.392Z,35.40
2023-05-22T15:49:27.457Z,34.90
2023-05-22T15:51:59.028Z,34.50
2023-05-22T15:54:29.344Z,34.00
2023-05-22T15:56:59.141Z,33.50
2023-05-22T15:59:29.635Z,33.20
2023-05-22T16:02:00.545Z,33.00
2023-05-22T16:04:29.982Z,32.70
2023-05-22T16:06:58.959Z,32.50
2023-05-22T16:09:27.569Z,32.30
2023-05-22T16:11:57.112Z,31.80
2023-05-22T16:14:25.792Z,29.80
2023-05-22T16:16:59.320Z,28.20
2023-05-22T16:19:32.233Z,26.60
2023-05-22T16:22:04.476Z,24.60
2023-05-22T16:24:35.332Z,22.30
2023-05-22T16:27:06.170Z,21.20
2023-05-22T16:29:35.126Z,20.40
2023-05-22T16:32:05.798Z,19.90
2023-05-22T16:34:35.700Z,19.60
2023-05-22T16:37:04.876Z,19.30
2023-05-22T16:39:33.559Z,19.00
2023-05-22T16:42:03.092Z,18.90
2023-05-22T16:44:33.059Z,18.80
2023-05-22T16:47:02.063Z,18.50
2023-05-22T16:49:33.636Z,18.20
2023-05-22T16:52:03.180Z,17.70
2023-05-22T16:54:32.112Z,17.50
2023-05-22T16:57:00.874Z,17.30
2023-05-22T16:59:29.356Z,17.10
2023-05-22T17:01:58.664Z,17.10
2023-05-22T17:04:28.338Z,17.00
2023-05-22T17:06:58.909Z,17.00
2023-05-22T17:09:28.489Z,17.00
2023-05-22T17:12:02.101Z,17.00
2023-05-22T17:14:31.841Z,17.00
2023-05-22T17:17:00.815Z,17.00
2023-05-22T17:19:29.588Z,17.10
2023-05-22T17:21:59.978Z,17.30
2023-05-22T17:24:30.492Z,17.50
2023-05-22T17:26:59.388Z,17.60
2023-05-22T17:29:28.278Z,17.70
2023-05-22T17:31:56.766Z,17.70
2023-05-22T17:34:25.707Z,17.70
2023-05-22T17:36:57.160Z,17.80
2023-05-22T17:39:29.325Z,17.90
2023-05-22T17:42:00.248Z,17.90
2023-05-22T17:44:32.556Z,17.90
2023-05-22T17:47:04.191Z,17.90
2023-05-22T17:49:32.894Z,17.90
2023-05-22T17:52:01.653Z,18.00
2023-05-22T17:54:58.112Z,18.00
2023-05-22T17:57:53.208Z,18.10
2023-05-22T18:00:22.918Z,18.10
2023-05-22T18:02:54.980Z,18.10
2023-05-22T18:05:25.391Z,18.10
2023-05-22T18:07:56.450Z,18.10
2023-05-22T18:10:30.046Z,18.20
2023-05-22T18:12:59.733Z,18.20
2023-05-22T18:15:29.040Z,18.30
2023-05-22T18:17:58.447Z,18.20
2023-05-22T18:20:28.056Z,18.30
2023-05-22T18:22:56.936Z,18.40
2023-05-22T18:25:25.828Z,18.40
2023-05-22T18:27:55.710Z,18.60
2023-05-22T18:30:24.572Z,18.70
2023-05-22T18:32:54.098Z,18.70
2023-05-22T18:35:23.657Z,18.70
2023-05-22T18:37:53.779Z,18.70
2023-05-22T18:40:22.842Z,18.70
2023-05-22T18:42:52.999Z,18.70
2023-05-22T18:45:23.838Z,18.60
2023-05-22T18:47:52.768Z,18.70
2023-05-22T18:50:23.550Z,18.70
2023-05-22T18:52:53.686Z,18.70
2023-05-22T18:55:22.365Z,18.70
2023-05-22T18:57:51.370Z,18.80
2023-05-22T19:00:21.077Z,18.80
2023-05-22T19:02:52.637Z,18.80
2023-05-22T19:05:21.743Z,18.90
2023-05-22T19:07:50.597Z,18.80
2023-05-22T19:10:21.699Z,18.80
2023-05-22T19:12:50.656Z,18.80
2023-05-22T19:15:19.262Z,18.80
2023-05-22T19:17:48.581Z,18.70
2023-05-22T19:20:20.591Z,18.70
2023-05-22T19:22:50.942Z,18.60
2023-05-22T19:25:20.143Z,18.50
2023-05-22T19:27:49.128Z,18.40
2023-05-22T19:30:19.007Z,18.30
2023-05-22T19:32:49.850Z,18.30
2023-05-22T19:35:20.188Z,18.20
2023-05-22T19:37:50.233Z,18.20
2023-05-22T19:40:19.937Z,18.10
2023-05-22T19:42:48.584Z,18.10
2023-05-22T19:45:18.398Z,18.00
2023-05-22T19:47:50.946Z,18.00
2023-05-22T19:50:21.898Z,17.90
2023-05-22T19:52:50.728Z,17.90
2023-05-22T19:55:19.957Z,17.80
2023-05-22T19:57:48.680Z,17.80
2023-05-22T20:00:38.889Z,17.80
2023-05-22T20:03:08.771Z,17.80
2023-05-22T20:05:43.866Z,17.80
2023-05-22T20:08:13.342Z,17.70
2023-05-22T20:10:43.433Z,17.70
2023-05-22T20:13:14.317Z,17.70
2023-05-22T20:15:48.057Z,17.70
2023-05-22T20:18:17.518Z,17.70
2023-05-22T20:20:49.387Z,17.70
2023-05-22T20:23:18.334Z,17.60
2023-05-22T20:25:48.053Z,17.70
2023-05-22T20:28:18.345Z,17.60
2023-05-22T20:30:48.384Z,17.70
2023-05-22T20:33:17.586Z,17.60
2023-05-22T20:35:51.422Z,17.70
2023-05-22T20:38:23.541Z,17.70
2023-05-22T20:40:52.391Z,17.70
2023-05-22T20:43:21.424Z,17.70
2023-05-22T20:45:50.510Z,17.70
2023-05-22T20:48:19.609Z,17.70
2023-05-22T20:50:50.916Z,17.60
2023-05-22T20:53:20.346Z,17.70
2023-05-22T20:55:48.870Z,17.70
2023-05-22T20:58:19.904Z,17.70
2023-05-22T21:00:50.956Z,17.60
2023-05-22T21:03:19.948Z,17.60
2023-05-22T21:05:50.747Z,17.60
2023-05-22T21:08:19.569Z,17.60
2023-05-22T21:10:48.182Z,17.50
2023-05-22T21:13:17.083Z,17.50
2023-05-22T21:15:45.928Z,17.50
2023-05-22T21:18:14.867Z,17.50
2023-05-22T21:20:43.052Z,17.50
2023-05-22T21:23:12.797Z,17.40
2023-05-22T21:25:44.057Z,17.30
2023-05-22T21:28:12.710Z,17.40
2023-05-22T21:30:43.805Z,17.40
2023-05-22T21:33:12.652Z,17.40
2023-05-22T21:35:41.085Z,17.40
2023-05-22T21:38:10.421Z,17.40
2023-05-22T21:40:43.180Z,17.40
2023-05-22T21:43:12.427Z,17.40
2023-05-22T21:45:41.132Z,17.40
2023-05-22T21:48:09.988Z,17.40
2023-05-22T21:50:38.719Z,17.40
2023-05-22T21:53:07.744Z,17.40
2023-05-22T21:55:36.642Z,17.40
2023-05-22T21:58:10.436Z,17.40
2023-05-22T22:00:38.945Z,17.40
2023-05-22T22:03:08.249Z,17.40
2023-05-22T22:05:37.311Z,17.30
2023-05-22T22:08:08.784Z,17.30
2023-05-22T22:10:39.012Z,17.30
2023-05-22T22:13:10.513Z,17.20
2023-05-22T22:15:39.320Z,17.20
2023-05-22T22:18:08.190Z,17.20
2023-05-22T22:20:44.050Z,17.20
2023-05-22T22:23:13.781Z,17.20
2023-05-22T22:25:42.659Z,17.20
2023-05-22T22:28:12.883Z,17.20
2023-05-22T22:30:43.268Z,17.20
2023-05-22T22:33:12.298Z,17.20
2023-05-22T22:35:41.405Z,17.20
2023-05-22T22:38:10.416Z,17.10
2023-05-22T22:40:39.238Z,17.10
2023-05-22T22:43:08.295Z,17.10
2023-05-22T22:45:40.728Z,17.10
2023-05-22T22:48:11.724Z,17.10
2023-05-22T22:50:41.412Z,17.10
2023-05-22T22:53:11.009Z,17.20
2023-05-22T22:55:40.035Z,17.20
2023-05-22T22:58:09.918Z,17.20
2023-05-22T23:00:40.374Z,17.30
2023-05-22T23:03:09.065Z,17.30
2023-05-22T23:05:37.956Z,17.30
2023-05-22T23:08:06.933Z,17.30
2023-05-22T23:10:35.540Z,17.30
2023-05-22T23:13:04.061Z,17.30
2023-05-22T23:15:34.227Z,17.30
2023-05-22T23:18:07.038Z,17.30
2023-05-22T23:20:38.536Z,17.30
2023-05-22T23:23:07.137Z,17.30
2023-05-22T23:25:36.880Z,17.30
2023-05-22T23:28:05.132Z,17.20
2023-05-22T23:30:33.782Z,17.30
2023-05-22T23:33:06.687Z,17.30
2023-05-22T23:35:35.790Z,17.20
2023-05-22T23:38:07.304Z,17.20
2023-05-22T23:40:35.828Z,17.10
2023-05-22T23:43:07.416Z,17.00
2023-05-22T23:45:36.642Z,17.00
2023-05-22T23:48:07.622Z,17.00
2023-05-22T23:50:36.450Z,17.00
2023-05-22T23:53:06.197Z,16.90
2023-05-22T23:55:34.722Z,16.90
2023-05-22T23:58:05.507Z,16.90
